createdAt,value
2019-01-11T00:01:25.729Z,-3.82
2019-01-11T00:03:32.204Z,-3.86
2019-01-11T00:05:38.609Z,-3.89
2019-01-11T00:07:45.325Z,-3.89
2019-01-11T00:09:51.869Z,-3.89
2019-01-11T00:12:00.432Z,-3.89
2019-01-11T00:14:07.090Z,-3.81
2019-01-11T00:16:13.399Z,-3.84
2019-01-11T00:18:19.721Z,-3.72
2019-01-11T00:20:26.087Z,-3.69
2019-01-11T00:22:32.545Z,-3.71
2019-01-11T00:24:38.758Z,-3.58
2019-01-11T00:26:45.295Z,-3.61
2019-01-11T00:28:51.650Z,-3.65
2019-01-11T00:30:58.384Z,-3.66
2019-01-11T00:33:05.033Z,-3.62
2019-01-11T00:35:11.967Z,-3.60
2019-01-11T00:37:18.418Z,-3.57
2019-01-11T00:39:24.972Z,-3.55
2019-01-11T00:41:31.390Z,-3.53
2019-01-11T00:43:38.189Z,-3.61
2019-01-11T00:45:44.854Z,-3.60
2019-01-11T00:47:51.763Z,-3.56
2019-01-11T00:49:58.790Z,-3.42
2019-01-11T00:52:05.471Z,-3.40
2019-01-11T00:54:11.988Z,-3.44
2019-01-11T00:56:18.844Z,-3.44
2019-01-11T00:58:25.431Z,-3.44
2019-01-11T01:00:32.121Z,-3.44
2019-01-11T01:02:39.188Z,-3.41
2019-01-11T01:04:45.986Z,-3.41
2019-01-11T01:06:53.453Z,-3.39
2019-01-11T01:08:59.950Z,-3.42
2019-01-11T01:11:06.757Z,-3.45
2019-01-11T01:13:13.649Z,-3.45
2019-01-11T01:15:20.993Z,-3.40
2019-01-11T01:17:27.836Z,-3.40
2019-01-11T01:19:34.507Z,-3.38
2019-01-11T01:21:40.829Z,-3.36
2019-01-11T01:23:47.283Z,-3.37
2019-01-11T01:25:53.602Z,-3.34
2019-01-11T01:28:00.125Z,-3.35
2019-01-11T01:30:10.171Z,-3.34
2019-01-11T01:32:16.437Z,-3.30
2019-01-11T01:34:24.822Z,-3.27
2019-01-11T01:36:31.580Z,-3.31
2019-01-11T01:38:37.846Z,-3.30
2019-01-11T01:40:44.843Z,-3.27
2019-01-11T01:42:51.370Z,-3.20
2019-01-11T01:44:59.837Z,-3.25
2019-01-11T01:47:06.776Z,-3.19
2019-01-11T01:49:14.542Z,-3.22
2019-01-11T01:51:21.143Z,-3.22
2019-01-11T01:53:27.748Z,-3.23
2019-01-11T01:55:34.165Z,-3.27
2019-01-11T01:57:40.628Z,-3.30
2019-01-11T01:59:47.224Z,-3.27
2019-01-11T02:01:54.301Z,-3.27
2019-01-11T02:04:00.850Z,-3.31
2019-01-11T02:06:07.979Z,-3.31
2019-01-11T02:08:14.443Z,-3.32
2019-01-11T02:10:21.117Z,-3.26
2019-01-11T02:12:28.145Z,-3.22
2019-01-11T02:14:34.674Z,-3.30
2019-01-11T02:16:40.998Z,-3.34
2019-01-11T02:18:47.896Z,-3.34
2019-01-11T02:20:54.481Z,-3.32
2019-01-11T02:23:01.125Z,-3.34
2019-01-11T02:25:08.280Z,-3.33
2019-01-11T02:27:15.664Z,-3.18
2019-01-11T02:29:21.811Z,-3.20
2019-01-11T02:31:28.563Z,-3.17
2019-01-11T02:33:35.379Z,-3.21
2019-01-11T02:35:41.881Z,-3.26
2019-01-11T02:37:48.502Z,-3.27
2019-01-11T02:39:55.115Z,-3.34
2019-01-11T02:42:01.756Z,-3.27
2019-01-11T02:44:08.587Z,-3.24
2019-01-11T02:46:14.867Z,-3.30
2019-01-11T02:48:21.586Z,-3.28
2019-01-11T02:50:28.236Z,-3.19
2019-01-11T02:52:34.639Z,-3.23
2019-01-11T02:54:40.924Z,-3.25
2019-01-11T02:56:47.642Z,-3.16
2019-01-11T02:58:54.098Z,-3.08
2019-01-11T03:01:00.737Z,-3.10
2019-01-11T03:03:07.806Z,-3.13
2019-01-11T03:05:15.222Z,-3.05
2019-01-11T03:07:21.852Z,-2.99
2019-01-11T03:09:28.449Z,-3.09
2019-01-11T03:11:35.917Z,-3.15
2019-01-11T03:13:42.740Z,-3.18
2019-01-11T03:15:49.285Z,-3.21
2019-01-11T03:17:57.340Z,-3.15
2019-01-11T03:20:03.824Z,-3.13
2019-01-11T03:22:10.176Z,-3.13
2019-01-11T03:24:16.546Z,-3.15
2019-01-11T03:26:23.450Z,-3.07
2019-01-11T03:28:30.137Z,-3.10
2019-01-11T03:30:36.845Z,-3.11
2019-01-11T03:32:43.249Z,-3.11
2019-01-11T03:35:13.137Z,-3.10
2019-01-11T03:37:19.796Z,-3.06
2019-01-11T03:39:26.311Z,-3.06
2019-01-11T03:41:33.306Z,-3.01
2019-01-11T03:43:39.729Z,-3.02
2019-01-11T03:45:46.028Z,-2.97
2019-01-11T03:47:52.543Z,-2.98
2019-01-11T03:49:59.357Z,-2.97
2019-01-11T03:52:06.022Z,-2.97
2019-01-11T03:54:12.421Z,-3.02
2019-01-11T03:56:18.819Z,-3.04
2019-01-11T03:58:25.499Z,-3.05
2019-01-11T04:00:31.959Z,-3.00
2019-01-11T04:02:38.675Z,-2.94
2019-01-11T04:04:45.055Z,-2.82
2019-01-11T04:06:51.630Z,-2.98
2019-01-11T04:08:58.592Z,-2.99
2019-01-11T04:11:05.170Z,-2.96
2019-01-11T04:13:11.691Z,-3.00
2019-01-11T04:15:19.306Z,-3.09
2019-01-11T04:17:26.671Z,-2.94
2019-01-11T04:19:33.049Z,-2.96
2019-01-11T04:21:41.253Z,-2.95
2019-01-11T04:23:47.644Z,-2.95
2019-01-11T04:25:54.356Z,-3.01
2019-01-11T04:28:00.827Z,-3.03
2019-01-11T04:30:14.231Z,-3.01
2019-01-11T04:32:20.964Z,-2.96
2019-01-11T04:34:27.617Z,-2.90
2019-01-11T04:36:34.660Z,-2.89
2019-01-11T04:38:40.908Z,-2.91
2019-01-11T04:40:47.429Z,-2.91
2019-01-11T04:42:53.961Z,-2.93
2019-01-11T04:45:00.463Z,-2.94
2019-01-11T04:47:07.052Z,-2.83
2019-01-11T04:49:13.508Z,-2.87
2019-01-11T04:51:20.374Z,-2.83
2019-01-11T04:53:26.759Z,-2.83
2019-01-11T04:55:33.175Z,-2.77
2019-01-11T04:57:39.611Z,-2.63
2019-01-11T04:59:45.672Z,-2.64
2019-01-11T05:01:52.261Z,-2.62
2019-01-11T05:03:58.921Z,-2.68
2019-01-11T05:06:05.411Z,-2.74
2019-01-11T05:08:11.965Z,-2.71
2019-01-11T05:10:22.161Z,-2.76
2019-01-11T05:12:29.023Z,-2.79
2019-01-11T05:14:35.609Z,-2.77
2019-01-11T05:16:42.452Z,-2.71
2019-01-11T05:18:49.046Z,-2.70
2019-01-11T05:20:55.430Z,-2.68
2019-01-11T05:23:02.597Z,-2.68
2019-01-11T05:25:09.188Z,-2.63
2019-01-11T05:27:15.713Z,-2.64
2019-01-11T05:29:22.040Z,-2.66
2019-01-11T05:31:28.868Z,-2.56
2019-01-11T05:33:35.370Z,-2.57
2019-01-11T05:35:42.386Z,-2.55
2019-01-11T05:37:49.172Z,-2.54
2019-01-11T05:39:56.043Z,-2.55
2019-01-11T05:42:02.937Z,-2.56
2019-01-11T05:44:09.598Z,-2.52
2019-01-11T05:46:16.418Z,-2.55
2019-01-11T05:48:22.927Z,-2.54
2019-01-11T05:50:29.826Z,-2.47
2019-01-11T05:52:36.361Z,-2.48
2019-01-11T05:54:42.977Z,-2.55
2019-01-11T05:56:49.732Z,-2.42
2019-01-11T05:59:05.201Z,-2.23
2019-01-11T06:01:13.115Z,-2.24
2019-01-11T06:03:19.808Z,-2.26
2019-01-11T06:05:26.138Z,-2.21
2019-01-11T06:07:37.934Z,-2.13
2019-01-11T06:09:45.007Z,-2.10
2019-01-11T06:11:51.845Z,-2.07
2019-01-11T06:13:58.636Z,-2.00
2019-01-11T06:16:06.154Z,-1.97
2019-01-11T06:18:12.725Z,-2.03
2019-01-11T06:20:19.613Z,-2.06
2019-01-11T06:22:26.127Z,-2.06
2019-01-11T06:24:32.827Z,-2.07
2019-01-11T06:26:42.092Z,-2.00
2019-01-11T06:28:48.698Z,-2.05
2019-01-11T06:30:55.777Z,-1.80
2019-01-11T06:33:02.584Z,-1.87
2019-01-11T06:35:10.438Z,-1.90
2019-01-11T06:37:17.179Z,-1.91
2019-01-11T06:39:23.868Z,-1.87
2019-01-11T06:41:39.910Z,-1.88
2019-01-11T06:43:48.245Z,-1.85
2019-01-11T06:45:55.316Z,-1.88
2019-01-11T06:48:03.117Z,-1.77
2019-01-11T06:50:12.566Z,-1.78
2019-01-11T06:52:19.463Z,-1.82
2019-01-11T06:54:25.938Z,-1.85
2019-01-11T06:56:33.098Z,-1.90
2019-01-11T06:58:39.618Z,-1.84
2019-01-11T07:00:46.306Z,-1.77
2019-01-11T07:02:53.314Z,-1.77
2019-01-11T07:05:01.516Z,-1.85
2019-01-11T07:07:08.003Z,-1.75
2019-01-11T07:09:14.846Z,-1.72
2019-01-11T07:11:21.541Z,-1.76
2019-01-11T07:13:28.677Z,-1.75
2019-01-11T07:15:35.448Z,-1.68
2019-01-11T07:17:41.935Z,-1.71
2019-01-11T07:19:48.485Z,-1.67
2019-01-11T07:21:55.961Z,-1.73
2019-01-11T07:24:02.748Z,-1.72
2019-01-11T07:26:12.337Z,-1.69
2019-01-11T07:28:18.988Z,-1.62
2019-01-11T07:30:29.281Z,-1.57
2019-01-11T07:32:36.275Z,-1.57
2019-01-11T07:34:42.987Z,-1.63
2019-01-11T07:36:52.458Z,-1.59
2019-01-11T07:38:59.504Z,-1.65
2019-01-11T07:41:06.170Z,-1.61
2019-01-11T07:43:12.764Z,-1.58
2019-01-11T07:45:19.300Z,-1.55
2019-01-11T07:47:25.756Z,-1.54
2019-01-11T07:49:32.377Z,-1.53
2019-01-11T07:51:39.121Z,-1.60
2019-01-11T07:53:45.787Z,-1.49
2019-01-11T07:55:52.443Z,-1.52
2019-01-11T07:57:59.158Z,-1.47
2019-01-11T08:00:08.391Z,-1.47
2019-01-11T08:02:15.375Z,-1.46
2019-01-11T08:04:21.986Z,-1.42
2019-01-11T08:06:28.703Z,-1.46
2019-01-11T08:08:35.735Z,-1.51
2019-01-11T08:10:42.353Z,-1.43
2019-01-11T08:12:49.565Z,-1.41
2019-01-11T08:14:56.264Z,-1.46
2019-01-11T08:17:03.128Z,-1.49
2019-01-11T08:19:10.051Z,-1.46
2019-01-11T08:21:16.913Z,-1.49
2019-01-11T08:23:23.617Z,-1.39
2019-01-11T08:25:30.076Z,-1.36
2019-01-11T08:27:37.543Z,-1.39
2019-01-11T08:29:44.399Z,-1.29
2019-01-11T08:31:51.510Z,-1.21
2019-01-11T08:33:58.527Z,-1.16
2019-01-11T08:36:05.571Z,-1.12
2019-01-11T08:38:12.166Z,-1.07
2019-01-11T08:40:18.851Z,-1.01
2019-01-11T08:42:25.460Z,-1.06
2019-01-11T08:44:32.103Z,-1.11
2019-01-11T08:46:38.869Z,-1.06
2019-01-11T08:48:45.926Z,-1.04
2019-01-11T08:50:53.067Z,-1.05
2019-01-11T08:52:59.736Z,-1.07
2019-01-11T08:55:06.836Z,-1.01
2019-01-11T08:57:13.293Z,-0.93
2019-01-11T08:59:20.271Z,-0.81
2019-01-11T09:01:27.308Z,-0.81
2019-01-11T09:03:34.021Z,-0.85
2019-01-11T09:05:40.645Z,-0.78
2019-01-11T09:07:47.484Z,-0.92
2019-01-11T09:09:54.130Z,-0.91
2019-01-11T09:12:00.756Z,-0.86
2019-01-11T09:14:09.323Z,-0.95
2019-01-11T09:16:20.692Z,-0.95
2019-01-11T09:18:37.395Z,-0.96
2019-01-11T09:20:44.350Z,-1.08
2019-01-11T09:22:50.970Z,-0.90
2019-01-11T09:24:57.906Z,-0.98
2019-01-11T09:27:04.597Z,-0.80
2019-01-11T09:29:11.062Z,-0.84
2019-01-11T09:31:17.703Z,-0.98
2019-01-11T09:33:24.832Z,-0.98
2019-01-11T09:35:32.182Z,-0.98
2019-01-11T09:37:39.073Z,-1.01
2019-01-11T09:39:45.699Z,-0.95
2019-01-11T09:41:52.709Z,-0.77
2019-01-11T09:43:59.531Z,-0.72
2019-01-11T09:46:06.557Z,-0.76
2019-01-11T09:48:13.325Z,-0.87
2019-01-11T09:50:19.905Z,-0.89
2019-01-11T09:52:26.377Z,-0.72
2019-01-11T09:54:32.854Z,-0.56
2019-01-11T09:56:39.365Z,-0.52
2019-01-11T09:58:46.258Z,-0.46
2019-01-11T10:00:58.983Z,-0.43
2019-01-11T10:03:06.968Z,-0.60
2019-01-11T10:05:13.666Z,-0.50
2019-01-11T10:07:27.824Z,-0.49
2019-01-11T10:09:34.439Z,-0.45
2019-01-11T10:11:41.130Z,-0.39
2019-01-11T10:13:47.860Z,-0.45
2019-01-11T10:15:54.285Z,-0.64
2019-01-11T10:18:00.636Z,-0.59
2019-01-11T10:20:08.961Z,-0.59
2019-01-11T10:22:15.487Z,-0.54
2019-01-11T10:24:22.141Z,-0.51
2019-01-11T10:26:28.957Z,-0.42
2019-01-11T10:28:35.564Z,-0.54
2019-01-11T10:30:42.570Z,-0.53
2019-01-11T10:32:49.805Z,-0.48
2019-01-11T10:34:56.656Z,-0.51
2019-01-11T10:37:03.253Z,-0.52
2019-01-11T10:39:10.283Z,-0.62
2019-01-11T10:41:16.998Z,-0.58
2019-01-11T10:43:23.889Z,-0.54
2019-01-11T10:45:30.551Z,-0.61
2019-01-11T10:47:37.182Z,-0.51
2019-01-11T10:49:43.693Z,-0.37
2019-01-11T10:51:50.140Z,-0.38
2019-01-11T10:53:56.412Z,-0.25
2019-01-11T10:56:03.292Z,-0.10
2019-01-11T10:58:12.083Z,-0.09
2019-01-11T11:00:28.061Z,-0.22
2019-01-11T11:02:35.081Z,-0.17
2019-01-11T11:04:41.626Z,-0.19
2019-01-11T11:06:49.048Z,-0.01
2019-01-11T11:08:55.814Z,-0.15
2019-01-11T11:11:02.224Z,0.03
2019-01-11T11:13:08.931Z,0.03
2019-01-11T11:15:16.857Z,-0.02
2019-01-11T11:17:23.490Z,-0.11
2019-01-11T11:19:30.131Z,-0.09
2019-01-11T11:21:37.287Z,0.05
2019-01-11T11:23:44.319Z,0.10
2019-01-11T11:25:50.671Z,0.16
2019-01-11T11:27:57.454Z,0.31
2019-01-11T11:30:04.794Z,0.23
2019-01-11T11:32:13.422Z,0.38
2019-01-11T11:34:29.559Z,0.53
2019-01-11T11:36:36.502Z,0.60
2019-01-11T11:38:43.134Z,0.51
2019-01-11T11:40:50.004Z,0.56
2019-01-11T11:42:56.512Z,0.52
2019-01-11T11:45:04.065Z,0.49
2019-01-11T11:47:10.843Z,0.42
2019-01-11T11:49:17.798Z,0.40
2019-01-11T11:51:24.522Z,0.55
2019-01-11T11:53:31.343Z,0.66
2019-01-11T11:55:37.926Z,0.62
2019-01-11T11:57:45.319Z,0.72
2019-01-11T11:59:53.280Z,0.63
2019-01-11T12:02:00.424Z,0.49
2019-01-11T12:04:07.445Z,0.64
2019-01-11T12:06:14.245Z,0.76
2019-01-11T12:08:21.034Z,0.82
2019-01-11T12:10:27.661Z,0.96
2019-01-11T12:12:35.071Z,0.91
2019-01-11T12:14:41.717Z,0.96
2019-01-11T12:16:47.971Z,1.07
2019-01-11T12:18:54.588Z,1.01
2019-01-11T12:21:01.212Z,1.16
2019-01-11T12:23:08.618Z,1.44
2019-01-11T12:25:15.232Z,1.28
2019-01-11T12:27:22.074Z,1.38
2019-01-11T12:29:28.927Z,1.10
2019-01-11T12:31:36.204Z,1.20
2019-01-11T12:33:42.976Z,0.97
2019-01-11T12:35:49.607Z,1.02
2019-01-11T12:37:56.246Z,0.97
2019-01-11T12:40:03.196Z,1.01
2019-01-11T12:42:13.330Z,0.81
2019-01-11T12:44:19.683Z,0.99
2019-01-11T12:46:26.551Z,1.11
2019-01-11T12:48:33.590Z,1.05
2019-01-11T12:50:40.105Z,1.49
2019-01-11T12:52:46.572Z,1.31
2019-01-11T12:54:53.481Z,1.47
2019-01-11T12:57:00.314Z,1.33
2019-01-11T12:59:06.938Z,1.52
2019-01-11T13:01:13.882Z,1.57
2019-01-11T13:03:20.479Z,1.65
2019-01-11T13:05:27.330Z,1.85
2019-01-11T13:07:34.214Z,1.79
2019-01-11T13:09:41.188Z,1.89
2019-01-11T13:11:48.088Z,1.80
2019-01-11T13:13:55.310Z,1.65
2019-01-11T13:16:04.221Z,1.65
2019-01-11T13:18:11.261Z,1.56
2019-01-11T13:20:20.175Z,1.43
2019-01-11T13:22:26.900Z,1.33
2019-01-11T13:24:33.194Z,1.36
2019-01-11T13:26:39.897Z,1.52
2019-01-11T13:28:46.763Z,1.40
2019-01-11T13:30:53.600Z,1.55
2019-01-11T13:33:00.517Z,1.48
2019-01-11T13:35:07.753Z,1.52
2019-01-11T13:37:14.316Z,1.64
2019-01-11T13:39:22.153Z,1.53
2019-01-11T13:41:29.295Z,1.49
2019-01-11T13:43:37.115Z,1.31
2019-01-11T13:45:43.547Z,1.34
2019-01-11T13:47:50.205Z,1.24
2019-01-11T13:49:57.099Z,1.29
2019-01-11T13:52:07.328Z,1.31
2019-01-11T13:54:14.565Z,1.25
2019-01-11T13:56:21.132Z,1.39
2019-01-11T13:58:28.066Z,1.17
2019-01-11T14:00:35.122Z,0.86
2019-01-11T14:02:42.195Z,0.91
2019-01-11T14:04:48.855Z,0.82
2019-01-11T14:06:55.442Z,0.89
2019-01-11T14:09:02.370Z,0.78
2019-01-11T14:11:09.516Z,0.73
2019-01-11T14:13:16.326Z,0.76
2019-01-11T14:15:24.109Z,0.74
2019-01-11T14:17:30.474Z,0.91
2019-01-11T14:19:37.388Z,0.81
2019-01-11T14:21:44.286Z,0.86
2019-01-11T14:23:51.126Z,0.81
2019-01-11T14:25:57.649Z,0.80
2019-01-11T14:28:06.822Z,0.75
2019-01-11T14:30:13.524Z,0.78
2019-01-11T14:32:20.142Z,0.81
2019-01-11T14:34:26.552Z,0.91
2019-01-11T14:36:33.235Z,0.87
2019-01-11T14:38:40.404Z,0.91
2019-01-11T14:40:46.710Z,0.86
2019-01-11T14:42:53.211Z,0.88
2019-01-11T14:45:00.090Z,0.73
2019-01-11T14:47:06.642Z,0.78
2019-01-11T14:49:13.290Z,0.87
2019-01-11T14:51:21.620Z,0.82
2019-01-11T14:53:28.498Z,0.78
2019-01-11T14:55:35.109Z,0.79
2019-01-11T14:57:41.886Z,0.74
2019-01-11T14:59:48.344Z,0.65
2019-01-11T15:01:55.462Z,0.69
2019-01-11T15:04:02.421Z,0.76
2019-01-11T15:06:10.689Z,0.72
2019-01-11T15:08:17.228Z,0.66
2019-01-11T15:10:24.506Z,0.57
2019-01-11T15:12:33.031Z,0.57
2019-01-11T15:14:40.604Z,0.51
2019-01-11T15:16:47.455Z,0.43
2019-01-11T15:18:54.253Z,0.38
2019-01-11T15:21:01.223Z,0.42
2019-01-11T15:23:13.373Z,0.32
2019-01-11T15:25:16.805Z,0.28
2019-01-11T15:27:23.389Z,0.28
2019-01-11T15:29:30.658Z,0.29
2019-01-11T15:31:38.393Z,0.30
2019-01-11T15:33:45.972Z,0.36
2019-01-11T15:35:53.023Z,0.29
2019-01-11T15:38:00.331Z,0.28
2019-01-11T15:40:11.779Z,0.23
2019-01-11T15:42:18.162Z,0.22
2019-01-11T15:44:25.035Z,0.26
2019-01-11T15:46:31.816Z,0.29
2019-01-11T15:48:50.239Z,0.27
2019-01-11T15:50:58.294Z,0.23
2019-01-11T15:53:04.855Z,0.32
2019-01-11T15:55:12.253Z,0.35
2019-01-11T15:57:25.137Z,0.30
2019-01-11T15:59:32.044Z,0.29
2019-01-11T16:01:39.092Z,0.31
2019-01-11T16:03:45.705Z,0.21
2019-01-11T16:06:25.212Z,0.23
2019-01-11T16:08:31.984Z,0.22
2019-01-11T16:11:02.289Z,0.20
2019-01-11T16:13:44.939Z,0.27
2019-01-11T16:16:22.071Z,0.26
2019-01-11T16:18:31.014Z,0.27
2019-01-11T16:20:38.909Z,0.30
2019-01-11T16:22:45.664Z,0.31
2019-01-11T16:24:52.366Z,0.35
2019-01-11T16:26:59.034Z,0.23
2019-01-11T16:29:05.781Z,0.25
2019-01-11T16:31:12.631Z,0.18
2019-01-11T16:33:19.494Z,0.18
2019-01-11T16:35:26.002Z,0.25
2019-01-11T16:37:33.142Z,0.31
2019-01-11T16:39:41.867Z,0.39
2019-01-11T16:41:49.249Z,0.43
2019-01-11T16:43:56.201Z,0.45
2019-01-11T16:46:03.141Z,0.43
2019-01-11T16:48:10.134Z,0.34
2019-01-11T16:50:17.371Z,0.35
2019-01-11T16:52:24.076Z,0.34
2019-01-11T16:54:30.958Z,0.32
2019-01-11T16:56:38.123Z,0.30
2019-01-11T16:58:45.471Z,0.33
2019-01-11T17:00:52.565Z,0.29
2019-01-11T17:02:59.300Z,0.31
2019-01-11T17:05:06.590Z,0.36
2019-01-11T17:07:14.096Z,0.35
2019-01-11T17:09:20.441Z,0.24
2019-01-11T17:11:27.513Z,0.21
2019-01-11T17:13:40.740Z,0.33
2019-01-11T17:15:47.615Z,0.42
2019-01-11T17:17:55.772Z,0.61
2019-01-11T17:20:02.635Z,0.59
2019-01-11T17:22:10.965Z,0.50
2019-01-11T17:24:18.093Z,0.43
2019-01-11T17:26:25.274Z,0.37
2019-01-11T17:28:32.305Z,0.43
2019-01-11T17:30:41.056Z,0.53
2019-01-11T17:32:47.901Z,0.54
2019-01-11T17:34:54.600Z,0.60
2019-01-11T17:37:01.793Z,0.60
2019-01-11T17:39:10.977Z,0.79
2019-01-11T17:41:18.120Z,0.73
2019-01-11T17:43:25.135Z,0.54
2019-01-11T17:45:32.239Z,0.57
2019-01-11T17:47:39.401Z,0.46
2019-01-11T17:49:46.228Z,0.55
2019-01-11T17:51:53.317Z,0.62
2019-01-11T17:53:59.940Z,0.59
2019-01-11T17:56:07.518Z,0.50
2019-01-11T17:58:14.172Z,0.53
2019-01-11T18:00:21.362Z,0.73
2019-01-11T18:02:28.023Z,0.59
2019-01-11T18:04:34.839Z,0.40
2019-01-11T18:06:41.631Z,0.40
2019-01-11T18:08:48.491Z,0.42
2019-01-11T18:10:55.028Z,0.49
2019-01-11T18:13:01.660Z,0.59
2019-01-11T18:15:11.667Z,0.62
2019-01-11T18:17:19.086Z,0.72
2019-01-11T18:19:26.134Z,0.83
2019-01-11T18:21:33.285Z,0.85
2019-01-11T18:23:40.351Z,0.79
2019-01-11T18:25:48.570Z,0.67
2019-01-11T18:27:56.945Z,0.56
2019-01-11T18:30:06.754Z,0.58
2019-01-11T18:32:14.099Z,0.69
2019-01-11T18:34:21.552Z,0.80
2019-01-11T18:36:28.171Z,0.77
2019-01-11T18:38:35.227Z,0.80
2019-01-11T18:40:41.931Z,0.67
2019-01-11T18:42:48.599Z,0.60
2019-01-11T18:44:55.598Z,0.73
2019-01-11T18:47:02.973Z,0.82
2019-01-11T18:49:09.700Z,0.80
2019-01-11T18:51:17.245Z,0.88
2019-01-11T18:53:23.887Z,0.96
2019-01-11T18:55:30.410Z,0.87
2019-01-11T18:57:37.438Z,0.78
2019-01-11T18:59:43.956Z,0.84
2019-01-11T19:01:51.494Z,0.93
2019-01-11T19:03:58.613Z,0.92
2019-01-11T19:06:05.726Z,1.03
2019-01-11T19:08:12.161Z,0.93
2019-01-11T19:10:19.584Z,0.87
2019-01-11T19:12:26.689Z,0.95
2019-01-11T19:14:34.495Z,0.87
2019-01-11T19:16:41.318Z,0.86
2019-01-11T19:18:48.697Z,0.84
2019-01-11T19:20:55.653Z,1.06
2019-01-11T19:23:03.136Z,1.05
2019-01-11T19:25:10.889Z,1.09
2019-01-11T19:27:17.658Z,1.07
2019-01-11T19:29:24.496Z,1.03
2019-01-11T19:31:31.152Z,1.03
2019-01-11T19:33:37.840Z,1.00
2019-01-11T19:35:45.481Z,1.04
2019-01-11T19:37:52.803Z,0.95
2019-01-11T19:40:01.956Z,0.98
2019-01-11T19:42:09.656Z,0.96
2019-01-11T19:44:16.484Z,0.75
2019-01-11T19:46:23.187Z,0.75
2019-01-11T19:48:30.257Z,0.86
2019-01-11T19:50:37.687Z,0.87
2019-01-11T19:52:44.512Z,0.94
2019-01-11T19:54:51.289Z,0.89
2019-01-11T19:57:00.521Z,0.71
2019-01-11T19:59:07.703Z,0.74
2019-01-11T20:01:14.848Z,0.76
2019-01-11T20:03:21.598Z,0.70
2019-01-11T20:05:28.854Z,0.62
2019-01-11T20:07:35.519Z,0.63
2019-01-11T20:09:49.465Z,0.71
2019-01-11T20:11:56.097Z,0.85
2019-01-11T20:14:03.027Z,0.84
2019-01-11T20:16:09.472Z,0.87
2019-01-11T20:18:16.436Z,0.88
2019-01-11T20:20:24.964Z,0.87
2019-01-11T20:22:32.003Z,0.89
2019-01-11T20:24:40.267Z,0.99
2019-01-11T20:26:47.194Z,1.21
2019-01-11T20:28:53.711Z,0.97
2019-01-11T20:31:00.250Z,0.91
2019-01-11T20:33:06.846Z,0.93
2019-01-11T20:35:13.833Z,1.07
2019-01-11T20:37:28.063Z,0.89
2019-01-11T20:39:36.254Z,0.83
2019-01-11T20:41:43.052Z,0.87
2019-01-11T20:43:49.971Z,0.88
2019-01-11T20:46:03.188Z,0.77
2019-01-11T20:48:06.674Z,0.68
2019-01-11T20:50:18.729Z,0.58
2019-01-11T20:52:25.650Z,0.58
2019-01-11T20:54:32.456Z,0.59
2019-01-11T20:56:39.478Z,0.59
2019-01-11T20:58:45.939Z,0.58
2019-01-11T21:00:52.920Z,0.66
2019-01-11T21:03:00.036Z,0.64
2019-01-11T21:05:07.185Z,0.67
2019-01-11T21:07:13.885Z,0.73
2019-01-11T21:09:20.282Z,0.70
2019-01-11T21:11:27.012Z,0.53
2019-01-11T21:13:34.771Z,0.53
2019-01-11T21:15:41.285Z,0.53
2019-01-11T21:17:48.479Z,0.59
2019-01-11T21:19:55.391Z,0.67
2019-01-11T21:22:02.414Z,0.67
2019-01-11T21:24:09.435Z,0.74
2019-01-11T21:26:16.038Z,0.75
2019-01-11T21:28:22.435Z,0.85
2019-01-11T21:30:30.867Z,0.87
2019-01-11T21:32:37.431Z,0.92
2019-01-11T21:34:44.208Z,1.21
2019-01-11T21:36:51.080Z,1.03
2019-01-11T21:38:59.183Z,1.00
2019-01-11T21:41:05.909Z,1.18
2019-01-11T21:43:12.530Z,0.95
2019-01-11T21:45:20.262Z,0.84
2019-01-11T21:47:27.628Z,0.86
2019-01-11T21:49:35.379Z,0.87
2019-01-11T21:51:42.516Z,1.01
2019-01-11T21:53:55.576Z,1.09
2019-01-11T21:55:59.026Z,0.80
2019-01-11T21:58:06.302Z,0.84
2019-01-11T22:00:41.226Z,0.83
2019-01-11T22:02:49.688Z,0.86
2019-01-11T22:04:56.453Z,1.06
2019-01-11T22:07:03.640Z,0.95
2019-01-11T22:09:10.503Z,1.36
2019-01-11T22:11:19.579Z,1.53
2019-01-11T22:13:27.055Z,1.42
2019-01-11T22:15:34.663Z,1.34
2019-01-11T22:17:41.485Z,1.35
2019-01-11T22:19:48.345Z,1.38
2019-01-11T22:21:56.384Z,1.34
2019-01-11T22:24:03.548Z,1.32
2019-01-11T22:26:11.588Z,1.32
2019-01-11T22:28:18.793Z,1.53
2019-01-11T22:30:30.069Z,1.50
2019-01-11T22:32:34.045Z,1.40
2019-01-11T22:34:41.236Z,1.47
2019-01-11T22:36:47.888Z,1.44
2019-01-11T22:38:54.348Z,1.60
2019-01-11T22:41:00.863Z,1.56
2019-01-11T22:43:07.874Z,1.47
2019-01-11T22:45:18.453Z,1.43
2019-01-11T22:47:25.388Z,1.28
2019-01-11T22:49:32.022Z,1.67
2019-01-11T22:51:38.910Z,1.74
2019-01-11T22:53:45.323Z,1.79
2019-01-11T22:55:52.510Z,1.74
2019-01-11T22:58:00.126Z,1.69
2019-01-11T23:00:17.305Z,1.81
2019-01-11T23:02:41.961Z,1.80
2019-01-11T23:04:48.421Z,1.85
2019-01-11T23:06:59.020Z,1.78
2019-01-11T23:09:09.883Z,2.06
2019-01-11T23:11:50.599Z,1.90
2019-01-11T23:13:57.258Z,1.89
2019-01-11T23:16:18.104Z,2.01
2019-01-11T23:18:26.485Z,1.95
2019-01-11T23:20:33.587Z,2.04
2019-01-11T23:22:40.181Z,1.99
2019-01-11T23:24:47.118Z,2.06
2019-01-11T23:26:53.777Z,1.84
2019-01-11T23:29:00.373Z,1.74
2019-01-11T23:31:06.797Z,1.70
2019-01-11T23:33:13.431Z,1.66
2019-01-11T23:35:20.197Z,1.87
2019-01-11T23:37:27.377Z,1.71
2019-01-11T23:39:33.933Z,1.72
2019-01-11T23:41:41.145Z,1.86
2019-01-11T23:43:47.897Z,1.72
2019-01-11T23:45:55.146Z,1.79
2019-01-11T23:48:02.029Z,1.61
2019-01-11T23:50:11.165Z,1.69
2019-01-11T23:52:17.625Z,1.61
2019-01-11T23:54:24.680Z,1.75
2019-01-11T23:56:31.802Z,1.77
2019-01-11T23:58:38.339Z,1.91
